createdAt,value
2022-08-28T00:00:34.815Z,100.00
2022-08-28T00:15:34.505Z,100.00
2022-08-28T00:30:33.404Z,100.00
2022-08-28T00:45:38.716Z,100.00
2022-08-28T01:00:33.611Z,100.00
2022-08-28T01:15:23.429Z,100.00
2022-08-28T01:30:23.450Z,100.00
2022-08-28T01:45:23.296Z,100.00
2022-08-28T02:00:24.150Z,100.00
2022-08-28T02:15:23.733Z,100.00
2022-08-28T02:30:23.540Z,100.00
2022-08-28T02:45:23.664Z,100.00
2022-08-28T03:00:23.805Z,100.00
2022-08-28T03:15:23.728Z,100.00
2022-08-28T03:30:23.505Z,100.00
2022-08-28T03:45:23.508Z,100.00
2022-08-28T04:00:23.607Z,100.00
2022-08-28T04:15:23.827Z,100.00
2022-08-28T04:30:23.677Z,100.00
2022-08-28T04:45:23.823Z,100.00
2022-08-28T05:00:23.800Z,100.00
2022-08-28T05:15:23.673Z,100.00
2022-08-28T05:30:23.899Z,100.00
2022-08-28T05:45:23.783Z,100.00
2022-08-28T06:00:27.959Z,100.00
2022-08-28T06:15:23.979Z,100.00
2022-08-28T06:30:23.968Z,100.00
2022-08-28T06:45:23.827Z,100.00
2022-08-28T07:00:28.836Z,100.00
2022-08-28T07:15:24.219Z,100.00
2022-08-28T07:30:24.020Z,100.00
2022-08-28T07:45:24.059Z,100.00
2022-08-28T08:00:25.011Z,100.00
2022-08-28T08:15:25.676Z,100.00
2022-08-28T08:30:24.104Z,100.00
2022-08-28T08:45:24.171Z,100.00
2022-08-28T09:00:26.052Z,100.00
2022-08-28T09:15:24.118Z,100.00
2022-08-28T09:30:24.300Z,100.00
2022-08-28T09:45:23.943Z,100.00
2022-08-28T10:00:24.062Z,100.00
2022-08-28T10:15:24.133Z,100.00
2022-08-28T10:30:24.209Z,100.00
2022-08-28T10:45:33.177Z,100.00
2022-08-28T11:00:33.523Z,100.00
2022-08-28T11:15:23.213Z,100.00
2022-08-28T11:30:23.316Z,100.00
2022-08-28T11:45:23.334Z,100.00
2022-08-28T12:00:27.365Z,100.00
2022-08-28T12:15:23.220Z,100.00
2022-08-28T12:30:23.309Z,100.00
2022-08-28T12:45:23.292Z,95.35
2022-08-28T13:00:26.283Z,95.30
2022-08-28T13:15:24.348Z,99.23
2022-08-28T13:30:23.665Z,97.00
2022-08-28T13:45:23.639Z,91.30
2022-08-28T14:00:29.645Z,89.00
2022-08-28T14:15:23.833Z,83.60
2022-08-28T14:30:23.984Z,83.85
2022-08-28T14:57:48.863Z,83.57
2022-08-28T15:12:48.537Z,81.87
2022-08-28T15:15:23.315Z,80.30
2022-08-28T15:32:00.421Z,78.45
2022-08-28T15:46:59.663Z,83.40
2022-08-28T16:01:59.713Z,85.00
2022-08-28T16:15:23.903Z,91.05
2022-08-28T16:30:24.514Z,91.23
2022-08-28T16:45:23.979Z,91.60
2022-08-28T17:00:24.197Z,90.70
2022-08-28T17:02:33.780Z,88.30
2022-08-28T17:15:23.754Z,96.00
2022-08-28T17:30:23.783Z,100.00
2022-08-28T17:45:33.114Z,100.00
2022-08-28T18:00:33.035Z,100.00
2022-08-28T18:15:23.108Z,100.00
2022-08-28T18:30:23.262Z,100.00
2022-08-28T18:45:23.117Z,100.00
2022-08-28T19:00:23.856Z,100.00
2022-08-28T19:15:23.416Z,100.00
2022-08-28T19:30:23.264Z,100.00
2022-08-28T19:45:23.505Z,100.00
2022-08-28T20:00:24.148Z,100.00
2022-08-28T20:15:23.348Z,100.00
2022-08-28T20:30:24.107Z,100.00
2022-08-28T20:45:23.916Z,100.00
2022-08-28T21:00:25.864Z,100.00
2022-08-28T21:15:23.592Z,100.00
2022-08-28T21:30:23.381Z,100.00
2022-08-28T21:45:23.529Z,100.00
2022-08-28T22:15:23.340Z,100.00
2022-08-28T22:30:23.534Z,100.00
2022-08-28T22:45:23.364Z,100.00
2022-08-28T23:00:35.659Z,100.00
2022-08-28T23:15:23.831Z,100.00
2022-08-28T23:30:31.110Z,100.00
2022-08-28T23:45:23.631Z,100.00
